Time;durP1;ratioP1;P1;durP2;ratioP2;P2;SDS_P1;SDS_P2;PMS_P1;PMS_P2;Temp;Humidity;BMP_temperature;BMP_pressure;BME280_temperature;BME280_humidity;BME280_pressure;Samples;Min_cycle;Max_cycle;Signal;HPM_P1;HPM_P2
2022/01/14 00:01:20;;;;;;;18.20;12.23;;;;;;;;;;5117441;28;20071;-74
2022/01/14 00:03:46;;;;;;;18.85;11.75;;;;;;;;;;5116804;28;20031;-74
2022/01/14 00:06:12;;;;;;;25.08;13.88;;;;;;;;;;5117138;28;20040;-74
2022/01/14 00:08:39;;;;;;;23.88;13.23;;;;;;;;;;5117086;28;20066;-74
2022/01/14 00:11:14;;;;;;;18.80;10.48;;;;;;;;;;5098753;28;20462;-74
2022/01/14 00:13:56;;;;;;;19.17;10.68;;;;;;;;;;5117489;28;20501;-74
2022/01/14 00:16:22;;;;;;;23.67;13.45;;;;;;;;;;5125366;27;20035;-74
2022/01/14 00:18:49;;;;;;;28.20;14.82;;;;;;;;;;5137469;27;20031;-74
2022/01/14 00:21:15;;;;;;;30.38;18.23;;;;;;;;;;5137562;27;20039;-74
2022/01/14 00:23:42;;;;;;;24.65;15.82;;;;;;;;;;5133999;27;20027;-75
2022/01/14 00:31:52;;;;;;;19.38;12.63;;;;;;;;;;5136652;27;20150;-74
2022/01/14 00:34:18;;;;;;;26.33;14.77;;;;;;;;;;5136632;27;20031;-74
2022/01/14 00:36:45;;;;;;;22.30;12.02;;;;;;;;;;5137526;27;20042;-74
2022/01/14 00:39:12;;;;;;;18.75;12.55;;;;;;;;;;5136700;27;20110;-74
2022/01/14 00:41:38;;;;;;;26.73;15.38;;;;;;;;;;5135813;27;20035;-74
2022/01/14 00:44:10;;;;;;;26.60;14.70;;;;;;;;;;5137474;27;20026;-75
2022/01/14 00:46:37;;;;;;;38.08;20.83;;;;;;;;;;5136554;27;20031;-74
2022/01/14 00:49:04;;;;;;;21.85;13.07;;;;;;;;;;5137291;27;20035;-75
2022/01/14 00:51:30;;;;;;;19.88;10.90;;;;;;;;;;5136477;27;20111;-74
2022/01/14 00:53:56;;;;;;;24.70;14.38;;;;;;;;;;5136526;27;20029;-74
2022/01/14 01:01:37;;;;;;;20.02;11.77;;;;;;;;;;5136060;27;20075;-74
2022/01/14 01:04:04;;;;;;;15.90;10.05;;;;;;;;;;5136624;27;20031;-74
2022/01/14 01:06:30;;;;;;;24.17;13.73;;;;;;;;;;5137001;27;20412;-74
2022/01/14 01:08:57;;;;;;;24.27;14.48;;;;;;;;;;5136556;27;20075;-74
2022/01/14 01:11:31;;;;;;;21.55;11.45;;;;;;;;;;5136213;27;20042;-74
2022/01/14 01:14:07;;;;;;;15.90;10.00;;;;;;;;;;5136965;27;20080;-74
2022/01/14 01:16:33;;;;;;;22.45;13.80;;;;;;;;;;5125568;27;20042;-74
2022/01/14 01:18:59;;;;;;;26.85;13.95;;;;;;;;;;5116160;28;20036;-74
2022/01/14 01:21:25;;;;;;;20.92;13.00;;;;;;;;;;5115589;28;20474;-73
2022/01/14 01:23:51;;;;;;;19.95;12.10;;;;;;;;;;5115630;28;20351;-73
2022/01/14 01:26:26;;;;;;;21.73;11.75;;;;;;;;;;5097251;28;20027;-74
2022/01/14 01:31:40;;;;;;;19.65;12.00;;;;;;;;;;5094482;27;20046;-74
2022/01/14 01:34:09;;;;;;;18.08;10.07;;;;;;;;;;5117599;27;20031;-74
2022/01/14 01:36:36;;;;;;;16.02;9.35;;;;;;;;;;5115403;28;20089;-74
2022/01/14 01:39:04;;;;;;;16.60;9.10;;;;;;;;;;5116305;28;20062;-74
2022/01/14 01:41:31;;;;;;;19.80;10.77;;;;;;;;;;5115565;28;20047;-74
2022/01/14 01:43:59;;;;;;;20.60;11.40;;;;;;;;;;5115686;28;20039;-74
2022/01/14 01:46:25;;;;;;;21.27;11.23;;;;;;;;;;5115565;28;20411;-75
2022/01/14 01:48:52;;;;;;;20.15;11.48;;;;;;;;;;5116283;28;20028;-75
2022/01/14 01:51:19;;;;;;;15.77;8.85;;;;;;;;;;5115526;28;20039;-74
2022/01/14 01:53:45;;;;;;;16.80;9.93;;;;;;;;;;5114991;28;20027;-74
2022/01/14 01:56:12;;;;;;;16.35;10.32;;;;;;;;;;5115463;28;20096;-74
2022/01/14 01:58:38;;;;;;;17.20;10.50;;;;;;;;;;5115199;28;20035;-74
2022/01/14 02:01:04;;;;;;;16.77;10.90;;;;;;;;;;5115577;28;20043;-74
2022/01/14 02:03:31;;;;;;;17.80;10.63;;;;;;;;;;5114930;28;20061;-74
2022/01/14 02:05:57;;;;;;;18.63;10.57;;;;;;;;;;5115793;28;20074;-74
2022/01/14 02:08:23;;;;;;;16.13;9.93;;;;;;;;;;5112227;27;20031;-74
2022/01/14 02:10:49;;;;;;;18.40;11.45;;;;;;;;;;5132452;28;20474;-74
2022/01/14 02:13:16;;;;;;;15.98;9.82;;;;;;;;;;5133648;28;20028;-74
2022/01/14 02:15:48;;;;;;;16.70;10.10;;;;;;;;;;5130311;28;20031;-74
2022/01/14 02:23:31;;;;;;;17.25;9.10;;;;;;;;;;5114378;28;20030;-74
2022/01/14 02:25:58;;;;;;;16.67;9.48;;;;;;;;;;5114756;28;20038;-74
2022/01/14 02:28:25;;;;;;;15.38;9.38;;;;;;;;;;5114423;28;20028;-74
2022/01/14 02:30:51;;;;;;;12.10;7.40;;;;;;;;;;5115458;28;20027;-74
2022/01/14 02:33:18;;;;;;;13.50;8.43;;;;;;;;;;5114195;28;20084;-74
2022/01/14 02:35:46;;;;;;;11.90;7.75;;;;;;;;;;5096507;28;20027;-74
2022/01/14 02:38:13;;;;;;;13.73;8.88;;;;;;;;;;5126694;28;20023;-75
2022/01/14 02:40:40;;;;;;;14.95;8.68;;;;;;;;;;5114310;28;20035;-74
2022/01/14 02:43:12;;;;;;;15.18;8.35;;;;;;;;;;5114699;28;20031;-75
2022/01/14 02:45:38;;;;;;;14.05;8.35;;;;;;;;;;5114366;28;20024;-74
2022/01/14 02:48:05;;;;;;;12.60;7.63;;;;;;;;;;5114249;28;20054;-74
2022/01/14 02:50:55;;;;;;;11.50;7.65;;;;;;;;;;5114950;28;20111;-74
2022/01/14 02:53:29;;;;;;;11.93;8.27;;;;;;;;;;5114392;28;20114;-75
2022/01/14 02:56:00;;;;;;;13.70;8.05;;;;;;;;;;5115195;28;20123;-75
2022/01/14 02:58:29;;;;;;;14.13;8.32;;;;;;;;;;5114315;28;20039;-75
2022/01/14 03:00:56;;;;;;;12.30;7.97;;;;;;;;;;5113852;28;20082;-75
2022/01/14 03:03:25;;;;;;;15.65;8.50;;;;;;;;;;5114405;28;20505;-74
2022/01/14 03:05:52;;;;;;;14.25;7.88;;;;;;;;;;5118884;28;20412;-74
2022/01/14 03:08:22;;;;;;;12.45;7.18;;;;;;;;;;5118225;28;20114;-75
2022/01/14 03:10:58;;;;;;;12.93;7.80;;;;;;;;;;5118336;28;20046;-75
2022/01/14 03:13:24;;;;;;;13.48;7.80;;;;;;;;;;5118531;28;20039;-74
2022/01/14 03:15:50;;;;;;;11.55;7.55;;;;;;;;;;5117940;28;20110;-74
2022/01/14 03:18:22;;;;;;;10.63;7.00;;;;;;;;;;5118254;28;20027;-74
2022/01/14 03:20:52;;;;;;;12.38;7.38;;;;;;;;;;5118777;28;20121;-74
2022/01/14 03:23:19;;;;;;;14.18;7.30;;;;;;;;;;5117911;28;20051;-75
2022/01/14 03:25:49;;;;;;;11.95;7.53;;;;;;;;;;5117927;28;20531;-74
2022/01/14 03:28:16;;;;;;;13.32;8.20;;;;;;;;;;5117863;28;20066;-74
2022/01/14 03:30:42;;;;;;;15.10;7.78;;;;;;;;;;5118458;28;20085;-74
2022/01/14 03:33:09;;;;;;;11.55;6.53;;;;;;;;;;5117921;28;20044;-74
2022/01/14 03:35:35;;;;;;;11.95;7.28;;;;;;;;;;5117885;28;20036;-75
2022/01/14 03:38:02;;;;;;;12.02;7.10;;;;;;;;;;5117767;28;20119;-74
2022/01/14 03:40:28;;;;;;;10.57;7.13;;;;;;;;;;5118184;28;20258;-75
2022/01/14 03:42:54;;;;;;;10.90;6.90;;;;;;;;;;5117861;28;20046;-74
2022/01/14 03:45:20;;;;;;;9.82;6.15;;;;;;;;;;5118133;28;20438;-74
2022/01/14 03:47:47;;;;;;;11.63;7.00;;;;;;;;;;5118645;27;20062;-75
2022/01/14 03:50:13;;;;;;;10.75;6.72;;;;;;;;;;5128976;27;20047;-74
2022/01/14 03:52:39;;;;;;;11.30;7.00;;;;;;;;;;5117558;28;20516;-74
2022/01/14 03:55:05;;;;;;;13.68;6.93;;;;;;;;;;5117255;28;20032;-74
2022/01/14 03:57:31;;;;;;;11.38;7.57;;;;;;;;;;5117667;28;20042;-74
2022/01/14 03:59:58;;;;;;;11.75;6.72;;;;;;;;;;5118094;28;20173;-74
2022/01/14 04:02:24;;;;;;;10.80;6.50;;;;;;;;;;5117283;28;20039;-74
2022/01/14 04:04:50;;;;;;;9.48;6.78;;;;;;;;;;5117029;28;20036;-74
2022/01/14 04:07:16;;;;;;;8.68;6.13;;;;;;;;;;5117588;28;20055;-74
2022/01/14 04:09:42;;;;;;;12.60;6.70;;;;;;;;;;5117723;28;20027;-74
2022/01/14 04:12:16;;;;;;;11.63;7.80;;;;;;;;;;5116553;28;20138;-73
2022/01/14 04:17:11;;;;;;;12.43;7.45;;;;;;;;;;5115485;28;20043;-74
2022/01/14 04:19:38;;;;;;;10.75;6.43;;;;;;;;;;5116829;28;20027;-74
2022/01/14 04:22:04;;;;;;;10.75;6.43;;;;;;;;;;5117111;28;20135;-75
2022/01/14 04:24:31;;;;;;;11.13;6.70;;;;;;;;;;5116748;28;20110;-75
2022/01/14 04:26:57;;;;;;;11.10;6.55;;;;;;;;;;5116816;28;20059;-74
2022/01/14 04:29:23;;;;;;;10.05;6.63;;;;;;;;;;5116964;28;20035;-75
2022/01/14 04:31:49;;;;;;;11.48;6.75;;;;;;;;;;5116626;28;20040;-74
2022/01/14 04:34:16;;;;;;;13.80;7.13;;;;;;;;;;5116327;28;20036;-75
2022/01/14 04:36:43;;;;;;;9.23;5.53;;;;;;;;;;5116554;28;20036;-74
2022/01/14 04:39:09;;;;;;;10.95;6.68;;;;;;;;;;5116172;28;20031;-74
2022/01/14 04:41:36;;;;;;;11.73;6.40;;;;;;;;;;5116313;28;20124;-74
2022/01/14 04:44:02;;;;;;;10.70;6.32;;;;;;;;;;5116418;28;20031;-74
2022/01/14 04:49:06;;;;;;;10.07;6.55;;;;;;;;;;5116112;28;20043;-74
2022/01/14 04:51:33;;;;;;;9.68;6.05;;;;;;;;;;5115979;28;20035;-74
2022/01/14 04:53:59;;;;;;;12.05;6.35;;;;;;;;;;5116125;28;20096;-75
2022/01/14 04:56:25;;;;;;;10.27;6.40;;;;;;;;;;5116086;28;20088;-74
2022/01/14 04:58:52;;;;;;;9.95;6.10;;;;;;;;;;5116170;28;20089;-74
2022/01/14 05:01:18;;;;;;;9.60;5.97;;;;;;;;;;5127810;27;20418;-74
2022/01/14 05:03:44;;;;;;;8.27;5.45;;;;;;;;;;5116098;28;20088;-75
2022/01/14 05:06:11;;;;;;;9.13;5.93;;;;;;;;;;5097727;28;20039;-74
2022/01/14 05:08:39;;;;;;;11.65;5.60;;;;;;;;;;5115913;28;20054;-75
2022/01/14 05:11:23;;;;;;;10.18;6.43;;;;;;;;;;5115495;28;20383;-75
2022/01/14 05:13:49;;;;;;;11.82;5.75;;;;;;;;;;5115905;28;20039;-74
2022/01/14 05:16:16;;;;;;;9.18;6.18;;;;;;;;;;5115853;28;20114;-74
2022/01/14 05:18:42;;;;;;;11.32;6.22;;;;;;;;;;5126278;27;20488;-74
2022/01/14 05:21:08;;;;;;;9.63;5.72;;;;;;;;;;5136738;27;20458;-74
2022/01/14 05:23:35;;;;;;;8.85;5.60;;;;;;;;;;5125403;27;20040;-75
2022/01/14 05:26:01;;;;;;;10.02;6.03;;;;;;;;;;5115533;28;20462;-74
2022/01/14 05:28:27;;;;;;;10.60;6.38;;;;;;;;;;5128762;27;20043;-73
2022/01/14 05:30:53;;;;;;;11.75;6.68;;;;;;;;;;5136713;27;20492;-73
2022/01/14 05:33:19;;;;;;;9.82;5.70;;;;;;;;;;5121623;27;20032;-74
2022/01/14 05:35:45;;;;;;;9.35;5.65;;;;;;;;;;5113577;28;20044;-72
2022/01/14 05:38:12;;;;;;;11.32;5.10;;;;;;;;;;5114770;28;20075;-72
2022/01/14 05:40:38;;;;;;;9.95;5.10;;;;;;;;;;5114892;28;20508;-72
2022/01/14 05:43:04;;;;;;;11.30;6.93;;;;;;;;;;5115324;28;20040;-72
2022/01/14 05:45:30;;;;;;;13.50;8.00;;;;;;;;;;5115792;28;20039;-72
2022/01/14 05:47:56;;;;;;;11.23;7.82;;;;;;;;;;5115098;28;20473;-72
2022/01/14 05:50:23;;;;;;;13.20;7.90;;;;;;;;;;5115579;28;20035;-72
2022/01/14 05:52:50;;;;;;;12.02;7.50;;;;;;;;;;5115671;28;20035;-72
2022/01/14 05:55:17;;;;;;;12.60;7.22;;;;;;;;;;5116000;28;20378;-72
2022/01/14 05:57:44;;;;;;;11.40;6.10;;;;;;;;;;5115439;28;20032;-72
2022/01/14 06:00:11;;;;;;;10.07;6.15;;;;;;;;;;5114972;28;20028;-72
2022/01/14 06:02:38;;;;;;;11.40;6.15;;;;;;;;;;5114980;28;20027;-72
2022/01/14 06:05:04;;;;;;;10.75;5.93;;;;;;;;;;5115209;28;20035;-72
2022/01/14 06:07:30;;;;;;;14.57;6.35;;;;;;;;;;5115446;28;20039;-72
2022/01/14 06:09:56;;;;;;;9.20;5.65;;;;;;;;;;5115316;28;20063;-72
2022/01/14 06:12:22;;;;;;;9.32;6.10;;;;;;;;;;5114397;28;20054;-72
2022/01/14 06:14:48;;;;;;;9.57;6.35;;;;;;;;;;5114698;28;20039;-72
2022/01/14 06:17:15;;;;;;;9.52;5.57;;;;;;;;;;5114654;28;20378;-72
2022/01/14 06:19:41;;;;;;;12.70;6.70;;;;;;;;;;5114935;28;20455;-72
2022/01/14 06:22:07;;;;;;;12.25;6.63;;;;;;;;;;5114827;28;20065;-72
2022/01/14 06:24:33;;;;;;;10.20;6.03;;;;;;;;;;5114870;28;20043;-72
2022/01/14 06:27:01;;;;;;;11.57;5.40;;;;;;;;;;5114562;28;20119;-72
2022/01/14 06:29:27;;;;;;;10.90;5.35;;;;;;;;;;5115294;28;20462;-72
2022/01/14 06:31:53;;;;;;;9.52;5.47;;;;;;;;;;5114948;28;20043;-72
2022/01/14 06:34:19;;;;;;;12.57;7.28;;;;;;;;;;5114657;28;20038;-72
2022/01/14 06:36:45;;;;;;;11.82;7.63;;;;;;;;;;5114475;28;20547;-72
2022/01/14 06:39:11;;;;;;;7.57;5.18;;;;;;;;;;5115541;28;20119;-72
2022/01/14 06:41:38;;;;;;;11.35;6.38;;;;;;;;;;5118282;28;20041;-72
2022/01/14 06:44:07;;;;;;;8.20;5.63;;;;;;;;;;5118662;28;20038;-72
2022/01/14 06:46:33;;;;;;;9.80;5.85;;;;;;;;;;5118365;28;20119;-72
2022/01/14 06:48:59;;;;;;;11.35;7.15;;;;;;;;;;5118813;28;20039;-72
2022/01/14 06:51:26;;;;;;;10.57;5.60;;;;;;;;;;5119092;28;20074;-72
2022/01/14 06:53:52;;;;;;;10.18;5.50;;;;;;;;;;5118561;28;20436;-72
2022/01/14 06:56:18;;;;;;;11.93;8.15;;;;;;;;;;5118195;28;20089;-72
2022/01/14 06:58:44;;;;;;;9.82;5.20;;;;;;;;;;5118360;28;20092;-72
2022/01/14 07:01:11;;;;;;;8.30;5.60;;;;;;;;;;5118340;28;20043;-72
2022/01/14 07:03:37;;;;;;;7.38;4.90;;;;;;;;;;5118172;28;20035;-72
2022/01/14 07:06:03;;;;;;;11.07;6.38;;;;;;;;;;5118318;28;20035;-72
2022/01/14 07:08:29;;;;;;;11.70;7.28;;;;;;;;;;5117966;28;20039;-72
2022/01/14 07:10:55;;;;;;;13.20;7.47;;;;;;;;;;5118656;28;20413;-72
2022/01/14 07:13:21;;;;;;;16.08;12.23;;;;;;;;;;5118160;28;20039;-72
2022/01/14 07:15:48;;;;;;;12.98;8.65;;;;;;;;;;5118374;28;20043;-72
2022/01/14 07:18:16;;;;;;;9.15;6.03;;;;;;;;;;5117919;28;20130;-72
2022/01/14 07:20:42;;;;;;;10.27;5.45;;;;;;;;;;5117643;28;20068;-72
2022/01/14 07:23:08;;;;;;;9.27;5.57;;;;;;;;;;5117674;28;20032;-72
2022/01/14 07:25:34;;;;;;;11.43;6.60;;;;;;;;;;5118216;28;20043;-72
2022/01/14 07:28:00;;;;;;;10.35;6.00;;;;;;;;;;5117778;28;20122;-72
2022/01/14 07:30:26;;;;;;;11.43;6.40;;;;;;;;;;5118484;28;20042;-72
2022/01/14 07:32:52;;;;;;;14.27;6.80;;;;;;;;;;5117742;28;20042;-72
2022/01/14 07:35:19;;;;;;;16.65;8.90;;;;;;;;;;5118321;28;20172;-72
2022/01/14 07:37:45;;;;;;;13.98;7.03;;;;;;;;;;5117389;28;20035;-72
2022/01/14 07:40:11;;;;;;;12.48;6.90;;;;;;;;;;5120871;27;20035;-72
2022/01/14 07:42:38;;;;;;;10.38;6.22;;;;;;;;;;5135505;27;20481;-72
2022/01/14 07:45:04;;;;;;;22.08;14.23;;;;;;;;;;5133195;27;20118;-72
2022/01/14 07:47:32;;;;;;;13.10;7.35;;;;;;;;;;5117537;28;20046;-72
2022/01/14 07:49:58;;;;;;;13.20;7.25;;;;;;;;;;5117074;28;20449;-72
2022/01/14 07:52:24;;;;;;;12.73;7.15;;;;;;;;;;5117397;28;20118;-72
2022/01/14 07:54:50;;;;;;;12.13;6.90;;;;;;;;;;5117508;28;20059;-72
2022/01/14 07:57:17;;;;;;;12.30;7.20;;;;;;;;;;5122286;27;20141;-72
2022/01/14 07:59:43;;;;;;;12.57;8.38;;;;;;;;;;5137778;27;20046;-72
2022/01/14 08:02:09;;;;;;;11.38;7.03;;;;;;;;;;5137713;27;20039;-72
2022/01/14 08:04:37;;;;;;;9.85;6.07;;;;;;;;;;5137480;27;20041;-72
2022/01/14 08:07:10;;;;;;;11.75;8.57;;;;;;;;;;5137328;27;20031;-72
2022/01/14 08:09:37;;;;;;;10.30;6.82;;;;;;;;;;5130893;27;20118;-72
2022/01/14 08:12:04;;;;;;;11.80;6.80;;;;;;;;;;5137969;27;20081;-71
2022/01/14 08:14:30;;;;;;;10.57;6.47;;;;;;;;;;5129821;27;20496;-72
2022/01/14 08:16:57;;;;;;;11.93;6.68;;;;;;;;;;5117873;27;20035;-72
2022/01/14 08:19:23;;;;;;;17.20;8.20;;;;;;;;;;5129280;27;20070;-72
2022/01/14 08:21:49;;;;;;;12.95;7.05;;;;;;;;;;5117740;27;20036;-71
2022/01/14 08:24:15;;;;;;;15.35;7.47;;;;;;;;;;5132086;27;20037;-71
2022/01/14 08:26:41;;;;;;;15.57;6.75;;;;;;;;;;5134433;27;20063;-71
2022/01/14 08:29:07;;;;;;;18.05;11.38;;;;;;;;;;5123805;27;20039;-71
2022/01/14 08:31:33;;;;;;;15.30;10.10;;;;;;;;;;5136789;27;20609;-71
2022/01/14 08:34:00;;;;;;;10.15;7.18;;;;;;;;;;5134957;27;20481;-72
2022/01/14 08:36:28;;;;;;;11.30;6.93;;;;;;;;;;5136940;27;20037;-71
2022/01/14 08:38:54;;;;;;;11.05;6.20;;;;;;;;;;5136876;27;20062;-71
2022/01/14 08:41:21;;;;;;;9.32;5.90;;;;;;;;;;5136388;27;20110;-71
2022/01/14 08:43:47;;;;;;;10.45;6.13;;;;;;;;;;5136654;27;20555;-72
2022/01/14 08:46:14;;;;;;;12.55;6.90;;;;;;;;;;5127516;27;20076;-72
2022/01/14 08:48:40;;;;;;;12.35;5.78;;;;;;;;;;5097845;28;20386;-71
2022/01/14 08:51:08;;;;;;;7.47;4.63;;;;;;;;;;5116172;28;20042;-72
2022/01/14 08:53:34;;;;;;;10.25;5.72;;;;;;;;;;5126171;27;20130;-72
2022/01/14 08:56:00;;;;;;;11.85;6.53;;;;;;;;;;5135635;27;20026;-71
2022/01/14 08:58:27;;;;;;;10.65;6.88;;;;;;;;;;5134501;27;20505;-71
2022/01/14 09:00:53;;;;;;;12.25;6.45;;;;;;;;;;5126174;27;20043;-72
2022/01/14 09:03:19;;;;;;;9.70;6.28;;;;;;;;;;5127773;27;20027;-72
2022/01/14 09:05:45;;;;;;;12.30;7.47;;;;;;;;;;5132950;27;20160;-72
2022/01/14 09:08:12;;;;;;;11.38;7.45;;;;;;;;;;5135866;27;20031;-71
2022/01/14 09:10:39;;;;;;;8.57;5.38;;;;;;;;;;5122539;27;20038;-71
2022/01/14 09:13:05;;;;;;;8.93;6.00;;;;;;;;;;5127383;27;20510;-71
2022/01/14 09:15:31;;;;;;;5.10;3.17;;;;;;;;;;5136358;27;20035;-72
2022/01/14 09:17:57;;;;;;;5.00;3.13;;;;;;;;;;5128208;27;20562;-71
2022/01/14 09:20:24;;;;;;;7.15;4.40;;;;;;;;;;5115356;28;20529;-71
2022/01/14 09:22:51;;;;;;;16.65;7.60;;;;;;;;;;5119045;27;20034;-71
2022/01/14 09:25:20;;;;;;;9.40;4.70;;;;;;;;;;5115252;28;20503;-71
2022/01/14 09:27:49;;;;;;;8.98;4.85;;;;;;;;;;5115697;27;20027;-71
2022/01/14 09:30:15;;;;;;;9.00;4.90;;;;;;;;;;5124859;27;20031;-71
2022/01/14 09:32:41;;;;;;;8.23;5.25;;;;;;;;;;5135445;27;20035;-70
2022/01/14 09:35:08;;;;;;;7.75;5.13;;;;;;;;;;5130625;27;20031;-71
2022/01/14 09:37:35;;;;;;;6.78;3.85;;;;;;;;;;5118960;27;20031;-70
2022/01/14 09:40:01;;;;;;;7.10;4.15;;;;;;;;;;5116257;27;20516;-74
2022/01/14 09:42:30;;;;;;;7.40;4.47;;;;;;;;;;5128229;27;20133;-70
2022/01/14 09:44:56;;;;;;;8.70;4.55;;;;;;;;;;5136159;27;20030;-71
2022/01/14 09:47:22;;;;;;;5.63;3.80;;;;;;;;;;5129865;27;20027;-69
2022/01/14 09:49:49;;;;;;;8.95;4.15;;;;;;;;;;5134447;27;20062;-71
2022/01/14 09:52:16;;;;;;;5.68;3.50;;;;;;;;;;5131620;27;20201;-70
2022/01/14 09:54:43;;;;;;;5.20;3.47;;;;;;;;;;5135589;27;20046;-70
2022/01/14 09:57:11;;;;;;;7.97;3.90;;;;;;;;;;5135401;27;20035;-70
2022/01/14 09:59:37;;;;;;;8.57;4.60;;;;;;;;;;5135743;27;20027;-70
2022/01/14 10:02:04;;;;;;;8.20;4.97;;;;;;;;;;5134577;27;20047;-70
2022/01/14 10:04:30;;;;;;;10.23;5.55;;;;;;;;;;5135389;27;20114;-70
2022/01/14 10:06:57;;;;;;;7.32;4.45;;;;;;;;;;5134078;27;20046;-70
2022/01/14 10:09:25;;;;;;;7.28;4.68;;;;;;;;;;5134786;28;20031;-70
2022/01/14 10:12:05;;;;;;;7.90;4.78;;;;;;;;;;5135992;27;20385;-70
2022/01/14 10:14:32;;;;;;;6.80;4.95;;;;;;;;;;5135891;27;20050;-70
2022/01/14 10:17:00;;;;;;;7.90;3.90;;;;;;;;;;5120032;27;20496;-70
2022/01/14 10:19:30;;;;;;;6.47;4.25;;;;;;;;;;5117836;27;20035;-70
2022/01/14 10:21:58;;;;;;;6.88;4.38;;;;;;;;;;5119068;28;20073;-70
2022/01/14 10:24:26;;;;;;;11.27;6.13;;;;;;;;;;5118764;28;20039;-70
2022/01/14 10:26:52;;;;;;;8.27;5.90;;;;;;;;;;5113907;28;20032;-69
2022/01/14 10:29:29;;;;;;;6.38;4.00;;;;;;;;;;5116126;28;20031;-69
2022/01/14 10:31:56;;;;;;;6.40;4.10;;;;;;;;;;5117252;27;20032;-69
2022/01/14 10:34:22;;;;;;;9.88;4.25;;;;;;;;;;5123341;27;20035;-70
2022/01/14 10:36:50;;;;;;;10.70;5.45;;;;;;;;;;5119473;27;20038;-69
2022/01/14 10:39:27;;;;;;;7.22;4.78;;;;;;;;;;5129904;27;20055;-70
2022/01/14 10:41:55;;;;;;;6.72;4.53;;;;;;;;;;5135543;27;20047;-70
2022/01/14 10:44:24;;;;;;;6.50;4.90;;;;;;;;;;5137246;27;20034;-70
2022/01/14 10:46:50;;;;;;;6.35;4.63;;;;;;;;;;5139180;27;20034;-70
2022/01/14 10:49:42;;;;;;;4.95;3.65;;;;;;;;;;5119567;27;20031;-70
2022/01/14 10:52:12;;;;;;;7.07;4.22;;;;;;;;;;5115875;27;20051;-69
2022/01/14 10:54:39;;;;;;;5.30;3.95;;;;;;;;;;5136012;27;20501;-69
2022/01/14 10:57:24;;;;;;;5.53;3.20;;;;;;;;;;5138293;27;20043;-69
2022/01/14 10:59:52;;;;;;;5.90;3.17;;;;;;;;;;5125203;27;20098;-69
2022/01/14 11:02:32;;;;;;;4.55;2.95;;;;;;;;;;5121251;27;20040;-69
2022/01/14 11:05:02;;;;;;;4.47;3.15;;;;;;;;;;5127320;27;20042;-69
2022/01/14 11:07:28;;;;;;;4.13;2.78;;;;;;;;;;5118555;28;20084;-70
2022/01/14 11:09:56;;;;;;;3.35;2.30;;;;;;;;;;5124925;27;20039;-70
2022/01/14 11:12:22;;;;;;;5.95;2.90;;;;;;;;;;5138069;27;20051;-70
2022/01/14 11:14:49;;;;;;;3.55;2.00;;;;;;;;;;5127223;27;20027;-70
2022/01/14 11:17:15;;;;;;;4.00;2.10;;;;;;;;;;5117662;28;20489;-70
2022/01/14 11:19:45;;;;;;;4.35;1.75;;;;;;;;;;5117313;28;20562;-70
2022/01/14 11:24:56;;;;;;;2.65;1.60;;;;;;;;;;5122759;27;20066;-70
2022/01/14 11:27:24;;;;;;;3.08;2.08;;;;;;;;;;5117076;28;20119;-70
2022/01/14 11:29:57;;;;;;;2.80;2.42;;;;;;;;;;5117207;27;20042;-70
2022/01/14 11:32:25;;;;;;;2.42;1.95;;;;;;;;;;5124193;27;20043;-70
2022/01/14 11:34:51;;;;;;;2.83;1.83;;;;;;;;;;5136758;27;20075;-70
2022/01/14 11:37:17;;;;;;;2.85;1.58;;;;;;;;;;5119703;27;20031;-70
2022/01/14 11:40:03;;;;;;;2.88;2.03;;;;;;;;;;5134559;27;20045;-70
2022/01/14 11:42:41;;;;;;;2.08;1.45;;;;;;;;;;5129417;27;20039;-71
2022/01/14 11:45:07;;;;;;;19.30;13.02;;;;;;;;;;5134454;27;20035;-70
2022/01/14 11:47:39;;;;;;;15.10;12.25;;;;;;;;;;5118080;27;20055;-70
2022/01/14 11:50:07;;;;;;;5.38;4.20;;;;;;;;;;5121683;27;20031;-70
2022/01/14 11:52:42;;;;;;;7.82;5.05;;;;;;;;;;5129588;27;20035;-70
2022/01/14 11:55:24;;;;;;;5.40;4.78;;;;;;;;;;5124608;27;20036;-70
2022/01/14 11:57:57;;;;;;;5.53;2.63;;;;;;;;;;5114616;27;20035;-71
2022/01/14 12:00:30;;;;;;;3.22;2.00;;;;;;;;;;5121396;27;20032;-70
2022/01/14 12:03:13;;;;;;;2.92;1.88;;;;;;;;;;5120603;27;20036;-71
2022/01/14 12:05:52;;;;;;;2.63;1.60;;;;;;;;;;5128705;27;20035;-71
2022/01/14 12:08:19;;;;;;;2.75;1.85;;;;;;;;;;5133816;27;20062;-71
2022/01/14 12:10:50;;;;;;;2.05;1.33;;;;;;;;;;5122961;27;20055;-71
2022/01/14 12:13:48;;;;;;;5.82;3.13;;;;;;;;;;5120522;27;20378;-71
2022/01/14 12:16:48;;;;;;;2.08;1.40;;;;;;;;;;5128642;27;20501;-71
2022/01/14 12:19:11;;;;;;;2.63;1.58;;;;;;;;;;5126813;27;20393;-71
2022/01/14 12:21:38;;;;;;;3.13;1.30;;;;;;;;;;5123288;27;20039;-71
2022/01/14 12:24:19;;;;;;;1.70;1.20;;;;;;;;;;5125463;27;20035;-70
2022/01/14 12:27:00;;;;;;;4.53;1.17;;;;;;;;;;5125857;27;20039;-70
2022/01/14 12:29:36;;;;;;;7.88;3.78;;;;;;;;;;5128843;27;20046;-70
2022/01/14 12:32:07;;;;;;;4.63;1.27;;;;;;;;;;5113203;28;20039;-70
2022/01/14 12:34:34;;;;;;;1.50;0.98;;;;;;;;;;5116130;28;20088;-70
2022/01/14 12:37:00;;;;;;;6.32;1.70;;;;;;;;;;5117015;27;20094;-70
2022/01/14 12:39:26;;;;;;;6.13;1.70;;;;;;;;;;5121326;27;20505;-70
2022/01/14 12:41:56;;;;;;;1.70;1.10;;;;;;;;;;5132775;27;20050;-70
2022/01/14 12:44:23;;;;;;;1.77;1.20;;;;;;;;;;5133611;27;20035;-70
2022/01/14 12:46:59;;;;;;;5.25;1.02;;;;;;;;;;5120967;27;20962;-73
2022/01/14 12:49:26;;;;;;;2.85;1.45;;;;;;;;;;5135887;27;20027;-71
2022/01/14 12:52:09;;;;;;;1.73;1.00;;;;;;;;;;5121815;27;20042;-74
2022/01/14 12:54:39;;;;;;;4.30;1.17;;;;;;;;;;5116135;28;20028;-71
2022/01/14 12:57:05;;;;;;;2.35;0.88;;;;;;;;;;5116168;27;20027;-71
2022/01/14 12:59:38;;;;;;;1.45;0.98;;;;;;;;;;5127157;27;20548;-71
2022/01/14 13:02:05;;;;;;;2.55;0.80;;;;;;;;;;5125043;27;20069;-71
2022/01/14 13:04:31;;;;;;;1.23;0.95;;;;;;;;;;5127374;27;20155;-71
2022/01/14 13:07:04;;;;;;;3.22;1.35;;;;;;;;;;5135941;27;20046;-71
2022/01/14 13:09:31;;;;;;;3.15;1.33;;;;;;;;;;5115522;27;20118;-71
2022/01/14 13:12:04;;;;;;;4.43;2.88;;;;;;;;;;5127700;27;20053;-70
2022/01/14 13:14:34;;;;;;;4.63;2.17;;;;;;;;;;5129766;27;20035;-72
2022/01/14 13:17:02;;;;;;;2.63;1.70;;;;;;;;;;5126210;27;20039;-71
2022/01/14 13:19:33;;;;;;;2.10;0.80;;;;;;;;;;5136178;27;20031;-71
2022/01/14 13:22:00;;;;;;;1.85;1.02;;;;;;;;;;5134756;27;20051;-71
2022/01/14 13:24:28;;;;;;;1.30;0.90;;;;;;;;;;5136258;27;20046;-71
2022/01/14 13:27:02;;;;;;;1.35;0.90;;;;;;;;;;5136435;27;20043;-71
2022/01/14 13:29:33;;;;;;;2.00;1.20;;;;;;;;;;5136698;27;20035;-71
2022/01/14 13:32:00;;;;;;;1.00;0.82;;;;;;;;;;5136168;27;20075;-71
2022/01/14 13:34:26;;;;;;;1.30;0.90;;;;;;;;;;5135981;27;20035;-71
2022/01/14 13:36:52;;;;;;;0.95;0.60;;;;;;;;;;5135759;27;20384;-71
2022/01/14 13:39:20;;;;;;;0.73;0.70;;;;;;;;;;5135805;27;20042;-71
2022/01/14 13:41:46;;;;;;;1.23;0.63;;;;;;;;;;5135548;27;20133;-71
2022/01/14 13:44:17;;;;;;;2.85;0.90;;;;;;;;;;5135978;27;20070;-71
2022/01/14 13:46:54;;;;;;;1.38;0.90;;;;;;;;;;5135900;27;20046;-71
2022/01/14 13:49:23;;;;;;;1.20;0.90;;;;;;;;;;5135558;27;20035;-71
2022/01/14 13:52:21;;;;;;;6.00;1.60;;;;;;;;;;5136225;27;20129;-71
2022/01/14 13:54:54;;;;;;;3.80;2.20;;;;;;;;;;5079718;27;20039;-71
2022/01/14 13:57:21;;;;;;;6.10;2.42;;;;;;;;;;5136084;27;20047;-71
2022/01/14 13:59:47;;;;;;;2.72;1.55;;;;;;;;;;5136218;27;20091;-71
2022/01/14 14:02:22;;;;;;;1.55;1.10;;;;;;;;;;5135595;27;20083;-71
2022/01/14 14:04:49;;;;;;;3.53;0.80;;;;;;;;;;5135132;27;20035;-71
2022/01/14 14:07:19;;;;;;;1.20;0.80;;;;;;;;;;5135647;27;20042;-71
2022/01/14 14:09:56;;;;;;;1.95;0.73;;;;;;;;;;5135269;27;20031;-71
2022/01/14 14:17:59;;;;;;;6.07;4.20;;;;;;;;;;5135307;28;20038;-71
2022/01/14 14:20:25;;;;;;;3.03;1.58;;;;;;;;;;5136348;28;20031;-71
2022/01/14 14:22:52;;;;;;;1.60;0.93;;;;;;;;;;5135780;27;20175;-71
2022/01/14 14:28:00;;;;;;;1.45;1.08;;;;;;;;;;5135584;28;20484;-71
2022/01/14 14:30:28;;;;;;;7.18;4.55;;;;;;;;;;5136006;28;20039;-71
2022/01/14 14:32:55;;;;;;;3.25;1.90;;;;;;;;;;5135418;28;20035;-71
2022/01/14 14:35:22;;;;;;;3.92;1.27;;;;;;;;;;5135585;27;20023;-71
2022/01/14 14:37:51;;;;;;;2.00;1.25;;;;;;;;;;5135370;28;20478;-71
2022/01/14 14:40:21;;;;;;;1.95;1.40;;;;;;;;;;5135787;28;20066;-71
2022/01/14 14:42:48;;;;;;;5.13;3.50;;;;;;;;;;5135626;28;20065;-71
2022/01/14 14:45:15;;;;;;;15.88;6.65;;;;;;;;;;5135535;28;20027;-71
2022/01/14 14:47:41;;;;;;;4.07;2.05;;;;;;;;;;5135432;28;20088;-71
2022/01/14 14:50:08;;;;;;;8.20;3.40;;;;;;;;;;5135128;28;20097;-71
2022/01/14 14:52:35;;;;;;;3.35;1.65;;;;;;;;;;5135737;28;20041;-71
2022/01/14 14:55:02;;;;;;;10.40;5.70;;;;;;;;;;5135503;28;20035;-71
2022/01/14 14:57:29;;;;;;;25.60;13.95;;;;;;;;;;5135447;28;20115;-71
2022/01/14 14:59:55;;;;;;;6.40;3.13;;;;;;;;;;5136130;27;20553;-71
2022/01/14 15:02:22;;;;;;;8.77;3.60;;;;;;;;;;5139006;27;20047;-71
2022/01/14 15:04:48;;;;;;;4.53;3.10;;;;;;;;;;5138731;27;20023;-71
2022/01/14 15:07:14;;;;;;;6.00;3.45;;;;;;;;;;5139237;27;20027;-71
2022/01/14 15:09:41;;;;;;;12.13;7.57;;;;;;;;;;5139981;27;20083;-71
2022/01/14 15:12:08;;;;;;;5.40;3.28;;;;;;;;;;5138727;27;20051;-71
2022/01/14 15:14:34;;;;;;;12.57;5.00;;;;;;;;;;5138779;27;20101;-71